Dike, Texas
Current Conditions -  °F | °C
As of 5:35 PM on Monday 20 Oct 2014 (Local Time) from KSLR Reporting Station
NA  
Wind Chill: 78°   Ceiling: NA
Heat Index: 79°   Visibility: 10mi
Dew Point: 59°   Wind: 5mph
Humidity: 52%   Direction: 130°SE
Pressure: 30.04"   Gusts: NA
Location:  33.24°N, 95.48°W
Report Text: KSLR 202235Z AUTO 13004KT 10SM 26/15 A3004 RMK AO2 T02560150
Loading
Personal Weather Stations






























Interactive Weather Map New forecast layout! Learn more

10-Day Weather Forecast

Advertisements
Track Severe Weather on mobile